createdAt,value
2019-04-26T00:00:16.166Z,1004.33
2019-04-26T00:01:26.548Z,1004.28
2019-04-26T00:02:37.050Z,1004.32
2019-04-26T00:03:47.035Z,1004.26
2019-04-26T00:04:58.140Z,1004.27
2019-04-26T00:06:08.970Z,1004.22
2019-04-26T00:07:20.691Z,1004.22
2019-04-26T00:08:31.162Z,1004.25
2019-04-26T00:09:41.889Z,1004.23
2019-04-26T00:10:51.615Z,1004.24
2019-04-26T00:12:01.888Z,1004.22
2019-04-26T00:13:14.646Z,1004.17
2019-04-26T00:14:26.177Z,1004.18
2019-04-26T00:15:36.144Z,1004.19
2019-04-26T00:16:46.392Z,1004.17
2019-04-26T00:17:56.520Z,1004.18
2019-04-26T00:19:06.000Z,1004.16
2019-04-26T00:20:19.143Z,1004.18
2019-04-26T00:21:29.130Z,1004.14
2019-04-26T00:22:40.196Z,1004.13
2019-04-26T00:23:49.918Z,1004.18
2019-04-26T00:25:00.732Z,1004.22
2019-04-26T00:26:13.489Z,1004.14
2019-04-26T00:27:22.984Z,1004.14
2019-04-26T00:28:32.428Z,1004.16
2019-04-26T00:29:42.139Z,1004.13
2019-04-26T00:30:52.090Z,1004.13
2019-04-26T00:32:02.032Z,1004.11
2019-04-26T00:33:13.521Z,1004.06
2019-04-26T00:34:24.254Z,1004.02
2019-04-26T00:35:46.491Z,1004.01
2019-04-26T00:36:56.751Z,1004.01
2019-04-26T00:38:06.704Z,1003.96
2019-04-26T00:39:18.131Z,1003.94
2019-04-26T00:40:29.771Z,1003.91
2019-04-26T00:41:39.775Z,1003.92
2019-04-26T00:42:49.728Z,1003.95
2019-04-26T00:44:00.510Z,1003.89
2019-04-26T00:45:10.217Z,1003.93
2019-04-26T00:46:22.964Z,1003.91
2019-04-26T00:47:32.542Z,1003.86
2019-04-26T00:48:42.239Z,1003.88
2019-04-26T00:49:51.928Z,1003.8
2019-04-26T00:51:01.894Z,1003.84
2019-04-26T00:52:11.910Z,1003.8
2019-04-26T00:53:24.448Z,1003.79
2019-04-26T00:54:34.203Z,1003.78
2019-04-26T00:55:43.918Z,1003.72
2019-04-26T00:56:53.855Z,1003.75
2019-04-26T00:58:03.558Z,1003.73
2019-04-26T00:59:15.023Z,1003.71
2019-04-26T01:00:26.110Z,1003.74
2019-04-26T01:01:36.070Z,1003.72
2019-04-26T01:02:46.021Z,1003.71
2019-04-26T01:03:55.978Z,1003.71
2019-04-26T01:05:05.938Z,1003.68
2019-04-26T01:06:17.408Z,1003.71
2019-04-26T01:07:28.242Z,1003.71
2019-04-26T01:08:38.202Z,1003.66
2019-04-26T01:09:48.166Z,1003.63
2019-04-26T01:10:57.614Z,1003.58
2019-04-26T01:12:07.584Z,1003.58
2019-04-26T01:13:20.248Z,1003.58
2019-04-26T01:14:31.334Z,1003.57
2019-04-26T01:15:41.031Z,1003.54
2019-04-26T01:16:50.744Z,1003.52
2019-04-26T01:18:00.454Z,1003.52
2019-04-26T01:19:10.158Z,1003.51
2019-04-26T01:20:22.463Z,1003.49
2019-04-26T01:21:32.508Z,1003.5
2019-04-26T01:22:42.201Z,1003.47
2019-04-26T01:23:52.160Z,1003.48
2019-04-26T01:25:01.877Z,1003.47
2019-04-26T01:26:11.833Z,1003.46
2019-04-26T01:27:23.983Z,1003.44
2019-04-26T01:28:33.951Z,1003.41
2019-04-26T01:29:43.657Z,1003.38
2019-04-26T01:30:53.362Z,1003.42
2019-04-26T01:32:03.066Z,1003.34
2019-04-26T01:33:12.761Z,1003.33
2019-04-26T01:34:24.813Z,1003.34
2019-04-26T01:35:35.319Z,1003.33
2019-04-26T01:36:45.028Z,1003.3
2019-04-26T01:37:54.723Z,1003.32
2019-04-26T01:39:04.688Z,1003.32
2019-04-26T01:40:14.412Z,1003.31
2019-04-26T01:41:26.919Z,1003.29
2019-04-26T01:42:37.585Z,1003.32
2019-04-26T01:43:47.055Z,1003.28
2019-04-26T01:44:57.026Z,1003.28
2019-04-26T01:46:06.232Z,1003.25
2019-04-26T01:47:16.190Z,1003.21
2019-04-26T01:48:27.162Z,1003.27
2019-04-26T01:49:37.121Z,1003.19
2019-04-26T01:50:46.821Z,1003.22
2019-04-26T01:51:56.526Z,1003.21
2019-04-26T01:53:06.507Z,1003.21
2019-04-26T01:54:16.212Z,1003.2
2019-04-26T01:55:29.149Z,1003.18
2019-04-26T01:56:39.171Z,1003.19
2019-04-26T01:57:48.890Z,1003.18
2019-04-26T01:58:58.854Z,1003.16
2019-04-26T02:00:08.825Z,1003.15
2019-04-26T02:01:18.811Z,1003.14
2019-04-26T02:02:30.722Z,1003.17
2019-04-26T02:03:40.691Z,1003.1
2019-04-26T02:04:50.631Z,1003.15
2019-04-26T02:06:00.325Z,1003.18
2019-04-26T02:07:10.023Z,1003.21
2019-04-26T02:08:19.761Z,1003.16
2019-04-26T02:09:32.931Z,1003.19
2019-04-26T02:10:43.017Z,1003.17
2019-04-26T02:11:52.981Z,1003.14
2019-04-26T02:13:02.929Z,1003.14
2019-04-26T02:14:12.375Z,1003.12
2019-04-26T02:15:25.258Z,1003.08
2019-04-26T02:16:36.786Z,1003.07
2019-04-26T02:17:46.483Z,1003.04
2019-04-26T02:18:56.429Z,1003.05
2019-04-26T02:20:06.125Z,1003.02
2019-04-26T02:21:16.070Z,1003.03
2019-04-26T02:22:28.218Z,1002.95
2019-04-26T02:23:39.306Z,1002.98
2019-04-26T02:24:49.005Z,1002.96
2019-04-26T02:25:58.710Z,1002.98
2019-04-26T02:27:08.655Z,1002.95
2019-04-26T02:28:18.342Z,1002.89
2019-04-26T02:29:31.143Z,1002.87
2019-04-26T02:30:41.085Z,1002.87
2019-04-26T02:31:51.101Z,1002.87
2019-04-26T02:33:01.106Z,1002.85
2019-04-26T02:34:10.845Z,1002.82
2019-04-26T02:35:20.839Z,1002.82
2019-04-26T02:36:52.646Z,1002.83
2019-04-26T02:38:06.751Z,1002.82
2019-04-26T02:39:16.557Z,1002.8
2019-04-26T02:40:31.155Z,1002.79
2019-04-26T02:41:42.650Z,1002.79
2019-04-26T02:42:52.385Z,1002.74
2019-04-26T02:44:02.101Z,1002.76
2019-04-26T02:45:12.091Z,1002.72
2019-04-26T02:46:22.073Z,1002.72
2019-04-26T02:47:39.159Z,1002.73
2019-04-26T02:48:49.269Z,1002.7
2019-04-26T02:49:59.018Z,1002.69
2019-04-26T02:51:08.741Z,1002.67
2019-04-26T02:52:18.453Z,1002.64
2019-04-26T02:53:31.481Z,1002.67
2019-04-26T02:54:44.561Z,1002.6
2019-04-26T02:55:54.031Z,1002.63
2019-04-26T02:57:03.993Z,1002.64
2019-04-26T02:58:14.154Z,1002.66
2019-04-26T02:59:24.132Z,1002.65
2019-04-26T03:00:42.942Z,1002.66
2019-04-26T03:01:52.649Z,1002.68
2019-04-26T03:03:02.124Z,1002.65
2019-04-26T03:04:12.124Z,1002.67
2019-04-26T03:05:21.865Z,1002.65
2019-04-26T03:06:37.190Z,1002.65
2019-04-26T03:08:07.565Z,1002.63
2019-04-26T03:09:17.144Z,1002.59
2019-04-26T03:10:26.614Z,1002.6
2019-04-26T03:11:41.118Z,1002.62
2019-04-26T03:12:51.127Z,1002.59
2019-04-26T03:14:00.854Z,1002.62
2019-04-26T03:15:13.654Z,1002.6
2019-04-26T03:16:24.018Z,1002.57
2019-04-26T03:17:39.713Z,1002.6
2019-04-26T03:18:50.716Z,1002.57
2019-04-26T03:20:00.202Z,1002.59
2019-04-26T03:21:10.058Z,1002.52
2019-04-26T03:22:19.773Z,1002.51
2019-04-26T03:23:42.772Z,1002.5
2019-04-26T03:25:06.539Z,1002.5
2019-04-26T03:26:16.282Z,1002.53
2019-04-26T03:27:25.988Z,1002.52
2019-04-26T03:28:43.935Z,1002.51
2019-04-26T03:30:04.984Z,1002.5
2019-04-26T03:31:45.577Z,1002.51
2019-04-26T03:33:02.381Z,1002.53
2019-04-26T03:34:12.792Z,1002.5
2019-04-26T03:35:24.107Z,1002.52
2019-04-26T03:36:55.331Z,1002.5
2019-04-26T03:38:22.495Z,1002.48
2019-04-26T03:39:36.296Z,1002.51
2019-04-26T03:40:49.981Z,1002.5
2019-04-26T03:41:59.965Z,1002.5
2019-04-26T03:43:09.926Z,1002.53
2019-04-26T03:44:19.897Z,1002.54
2019-04-26T03:45:29.890Z,1002.51
2019-04-26T03:46:45.459Z,1002.5
2019-04-26T03:47:55.463Z,1002.51
2019-04-26T03:49:05.176Z,1002.5
2019-04-26T03:50:15.148Z,1002.54
2019-04-26T03:51:25.098Z,1002.47
2019-04-26T03:52:39.635Z,1002.49
2019-04-26T03:53:53.011Z,1002.49
2019-04-26T03:55:02.728Z,1002.53
2019-04-26T03:56:12.685Z,1002.49
2019-04-26T03:57:22.399Z,1002.45
2019-04-26T03:58:32.120Z,1002.45
2019-04-26T03:59:46.222Z,1002.47
2019-04-26T04:00:55.740Z,1002.49
2019-04-26T04:02:05.466Z,1002.49
2019-04-26T04:03:15.392Z,1002.51
2019-04-26T04:04:27.641Z,1002.51
2019-04-26T04:05:44.092Z,1002.51
2019-04-26T04:07:03.532Z,1002.52
2019-04-26T04:08:14.259Z,1002.51
2019-04-26T04:09:24.236Z,1002.54
2019-04-26T04:10:34.209Z,1002.54
2019-04-26T04:11:50.689Z,1002.57
2019-04-26T04:13:17.904Z,1002.56
2019-04-26T04:14:27.952Z,1002.52
2019-04-26T04:15:44.039Z,1002.51
2019-04-26T04:16:55.780Z,1002.55
2019-04-26T04:18:05.769Z,1002.54
2019-04-26T04:19:15.480Z,1002.55
2019-04-26T04:20:25.187Z,1002.56
2019-04-26T04:21:35.170Z,1002.57
2019-04-26T04:22:51.209Z,1002.54
2019-04-26T04:24:00.931Z,1002.53
2019-04-26T04:25:10.930Z,1002.52
2019-04-26T04:26:20.685Z,1002.51
2019-04-26T04:27:30.392Z,1002.51
2019-04-26T04:28:44.550Z,1002.5
2019-04-26T04:29:57.580Z,1002.49
2019-04-26T04:31:07.571Z,1002.47
2019-04-26T04:32:17.319Z,1002.49
2019-04-26T04:33:27.314Z,1002.49
2019-04-26T04:34:37.300Z,1002.5
2019-04-26T04:35:53.282Z,1002.52
2019-04-26T04:37:02.991Z,1002.55
2019-04-26T04:38:12.696Z,1002.57
2019-04-26T04:39:22.668Z,1002.58
2019-04-26T04:40:32.654Z,1002.59
2019-04-26T04:41:45.264Z,1002.55
2019-04-26T04:42:56.504Z,1002.58
2019-04-26T04:44:07.086Z,1002.54
2019-04-26T04:45:17.062Z,1002.55
2019-04-26T04:46:26.783Z,1002.63
2019-04-26T04:47:36.303Z,1002.62
2019-04-26T04:48:54.950Z,1002.64
2019-04-26T04:50:04.699Z,1002.65
2019-04-26T04:51:14.460Z,1002.69
2019-04-26T04:52:24.427Z,1002.65
2019-04-26T04:53:34.400Z,1002.65
2019-04-26T04:55:03.047Z,1002.68
2019-04-26T04:56:16.148Z,1002.73
2019-04-26T04:57:25.870Z,1002.69
2019-04-26T04:58:35.852Z,1002.69
2019-04-26T04:59:50.634Z,1002.71
2019-04-26T05:01:00.331Z,1002.72
2019-04-26T05:02:10.034Z,1002.69
2019-04-26T05:03:20.004Z,1002.72
2019-04-26T05:04:29.952Z,1002.72
2019-04-26T05:05:39.910Z,1002.72
2019-04-26T05:06:53.175Z,1002.74
2019-04-26T05:08:06.620Z,1002.76
2019-04-26T05:09:16.956Z,1002.7
2019-04-26T05:10:26.656Z,1002.71
2019-04-26T05:11:36.616Z,1002.71
2019-04-26T05:12:48.444Z,1002.71
2019-04-26T05:13:59.537Z,1002.71
2019-04-26T05:15:09.252Z,1002.71
2019-04-26T05:16:18.696Z,1002.68
2019-04-26T05:17:28.655Z,1002.69
2019-04-26T05:18:38.611Z,1002.65
2019-04-26T05:19:51.355Z,1002.69
2019-04-26T05:21:02.186Z,1002.64
2019-04-26T05:22:12.142Z,1002.65
2019-04-26T05:23:22.102Z,1002.65
2019-04-26T05:24:32.066Z,1002.6
2019-04-26T05:25:41.780Z,1002.67
2019-04-26T05:26:55.599Z,1002.65
2019-04-26T05:28:05.422Z,1002.62
2019-04-26T05:29:15.188Z,1002.66
2019-04-26T05:30:24.655Z,1002.62
2019-04-26T05:31:34.363Z,1002.61
2019-04-26T05:32:48.609Z,1002.59
2019-04-26T05:33:59.934Z,1002.54
2019-04-26T05:35:09.654Z,1002.54
2019-04-26T05:36:19.362Z,1002.57
2019-04-26T05:37:29.056Z,1002.53
2019-04-26T05:38:40.146Z,1002.56
2019-04-26T05:39:51.882Z,1002.55
2019-04-26T05:41:02.908Z,1002.57
2019-04-26T05:42:12.860Z,1002.53
2019-04-26T05:43:22.820Z,1002.54
2019-04-26T05:44:32.789Z,1002.53
2019-04-26T05:45:42.252Z,1002.55
2019-04-26T05:46:54.386Z,1002.59
2019-04-26T05:48:11.385Z,1002.62
2019-04-26T05:49:21.567Z,1002.62
2019-04-26T05:50:30.778Z,1002.68
2019-04-26T05:51:40.729Z,1002.72
2019-04-26T05:52:53.119Z,1002.81
2019-04-26T05:54:03.124Z,1002.81
2019-04-26T05:55:13.079Z,1002.84
2019-04-26T05:56:23.032Z,1002.83
2019-04-26T05:57:32.728Z,1002.76
2019-04-26T05:58:42.681Z,1002.73
2019-04-26T05:59:55.031Z,1002.71
2019-04-26T06:01:04.745Z,1002.7
2019-04-26T06:02:14.219Z,1002.71
2019-04-26T06:03:24.194Z,1002.71
2019-04-26T06:04:34.155Z,1002.7
2019-04-26T06:05:44.111Z,1002.71
2019-04-26T06:06:55.223Z,1002.76
2019-04-26T06:08:04.923Z,1002.77
2019-04-26T06:09:14.639Z,1002.75
2019-04-26T06:10:24.596Z,1002.69
2019-04-26T06:11:34.328Z,1002.69
2019-04-26T06:12:44.289Z,1002.69
2019-04-26T06:13:55.693Z,1002.68
2019-04-26T06:15:05.739Z,1002.7
2019-04-26T06:16:15.688Z,1002.69
2019-04-26T06:17:25.662Z,1002.65
2019-04-26T06:18:36.331Z,1002.64
2019-04-26T06:19:46.043Z,1002.61
2019-04-26T06:20:58.059Z,1002.69
2019-04-26T06:22:07.771Z,1002.66
2019-04-26T06:23:17.737Z,1002.67
2019-04-26T06:24:27.764Z,1002.65
2019-04-26T06:25:37.740Z,1002.7
2019-04-26T06:26:47.220Z,1002.67
2019-04-26T06:28:14.859Z,1002.63
2019-04-26T06:29:24.818Z,1002.67
2019-04-26T06:30:45.193Z,1002.63
2019-04-26T06:31:57.956Z,1002.66
2019-04-26T06:33:07.858Z,1002.64
2019-04-26T06:34:18.144Z,1002.65
2019-04-26T06:35:27.861Z,1002.68
2019-04-26T06:36:37.822Z,1002.64
2019-04-26T06:37:47.565Z,1002.6
2019-04-26T06:39:00.310Z,1002.63
2019-04-26T06:40:10.039Z,1002.59
2019-04-26T06:41:21.601Z,1002.57
2019-04-26T06:42:31.526Z,1002.57
2019-04-26T06:43:41.471Z,1002.56
2019-04-26T06:44:51.433Z,1002.55
2019-04-26T06:46:04.627Z,1002.54
2019-04-26T06:47:14.171Z,1002.47
2019-04-26T06:48:24.126Z,1002.5
2019-04-26T06:49:33.593Z,1002.45
2019-04-26T06:50:43.549Z,1002.44
2019-04-26T06:51:53.258Z,1002.46
2019-04-26T06:53:06.265Z,1002.4
2019-04-26T06:54:16.669Z,1002.39
2019-04-26T06:55:26.417Z,1002.37
2019-04-26T06:56:36.135Z,1002.38
2019-04-26T06:57:46.079Z,1002.39
2019-04-26T06:58:55.531Z,1002.39
2019-04-26T07:00:06.693Z,1002.42
2019-04-26T07:01:16.720Z,1002.42
2019-04-26T07:02:26.680Z,1002.42
2019-04-26T07:03:36.635Z,1002.45
2019-04-26T07:04:46.585Z,1002.43
2019-04-26T07:05:56.289Z,1002.42
2019-04-26T07:07:07.700Z,1002.38
2019-04-26T07:08:18.459Z,1002.37
2019-04-26T07:09:28.589Z,1002.35
2019-04-26T07:10:38.331Z,1002.34
2019-04-26T07:11:48.408Z,1002.33
2019-04-26T07:13:00.942Z,1002.31
2019-04-26T07:14:15.267Z,1002.31
2019-04-26T07:15:28.593Z,1002.33
2019-04-26T07:16:38.655Z,1002.34
2019-04-26T07:17:48.350Z,1002.32
2019-04-26T07:18:58.317Z,1002.36
2019-04-26T07:20:08.941Z,1002.35
2019-04-26T07:21:18.987Z,1002.32
2019-04-26T07:22:35.033Z,1002.36
2019-04-26T07:23:44.726Z,1002.35
2019-04-26T07:24:54.681Z,1002.35
2019-04-26T07:26:06.478Z,1002.38
2019-04-26T07:27:16.660Z,1002.33
2019-04-26T07:28:26.680Z,1002.32
2019-04-26T07:29:36.117Z,1002.34
2019-04-26T07:30:45.837Z,1002.35
2019-04-26T07:31:55.632Z,1002.34
2019-04-26T07:33:08.397Z,1002.4
2019-04-26T07:34:18.463Z,1002.41
2019-04-26T07:35:28.436Z,1002.43
2019-04-26T07:36:38.131Z,1002.42
2019-04-26T07:37:48.114Z,1002.41
2019-04-26T07:39:09.458Z,1002.4
2019-04-26T07:40:27.613Z,1002.43
2019-04-26T07:41:37.307Z,1002.43
2019-04-26T07:42:47.266Z,1002.4
2019-04-26T07:43:57.207Z,1002.4
2019-04-26T07:45:08.751Z,1002.41
2019-04-26T07:46:19.726Z,1002.4
2019-04-26T07:47:29.427Z,1002.4
2019-04-26T07:48:39.250Z,1002.36
2019-04-26T07:49:49.224Z,1002.37
2019-04-26T07:50:58.671Z,1002.35
2019-04-26T07:52:10.533Z,1002.35
2019-04-26T07:53:20.286Z,1002.35
2019-04-26T07:54:30.257Z,1002.38
2019-04-26T07:55:40.225Z,1002.4
2019-04-26T07:56:49.928Z,1002.36
2019-04-26T07:57:59.627Z,1002.4
2019-04-26T07:59:12.846Z,1002.35
2019-04-26T08:00:22.662Z,1002.31
2019-04-26T08:01:45.205Z,1002.35
2019-04-26T08:02:54.971Z,1002.34
2019-04-26T08:04:07.286Z,1002.36
2019-04-26T08:05:17.128Z,1002.3
2019-04-26T08:06:27.090Z,1002.33
2019-04-26T08:07:37.060Z,1002.35
2019-04-26T08:08:46.783Z,1002.34
2019-04-26T08:09:59.643Z,1002.36
2019-04-26T08:11:11.195Z,1002.36
2019-04-26T08:12:21.156Z,1002.4
2019-04-26T08:13:31.120Z,1002.37
2019-04-26T08:14:41.087Z,1002.34
2019-04-26T08:15:50.815Z,1002.36
2019-04-26T08:17:00.888Z,1002.38
2019-04-26T08:18:13.459Z,1002.41
2019-04-26T08:19:23.405Z,1002.38
2019-04-26T08:20:33.111Z,1002.38
2019-04-26T08:21:47.810Z,1002.33
2019-04-26T08:23:36.965Z,1002.33
2019-04-26T08:24:53.011Z,1002.31
2019-04-26T08:26:02.756Z,1002.3
2019-04-26T08:27:22.494Z,1002.33
2019-04-26T08:28:32.839Z,1002.28
2019-04-26T08:29:42.808Z,1002.26
2019-04-26T08:30:52.531Z,1002.25
2019-04-26T08:32:06.959Z,1002.26
2019-04-26T08:33:18.496Z,1002.18
2019-04-26T08:34:31.776Z,1002.2
2019-04-26T08:35:44.325Z,1002.3
2019-04-26T08:37:01.775Z,1002.3
2019-04-26T08:38:19.429Z,1002.3
2019-04-26T08:39:44.428Z,1002.3
2019-04-26T08:41:00.204Z,1002.25
2019-04-26T08:42:19.910Z,1002.25
2019-04-26T08:43:32.748Z,1002.24
2019-04-26T08:44:42.472Z,1002.23
2019-04-26T08:46:02.748Z,1002.25
2019-04-26T08:47:23.880Z,1002.3
2019-04-26T08:48:34.194Z,1002.36
2019-04-26T08:49:44.187Z,1002.26
2019-04-26T08:50:54.164Z,1002.25
2019-04-26T08:52:13.857Z,1002.25
2019-04-26T08:53:24.332Z,1002.25
2019-04-26T08:54:34.286Z,1002.28
2019-04-26T08:55:44.274Z,1002.27
2019-04-26T08:56:54.236Z,1002.23
2019-04-26T08:58:03.944Z,1002.31
2019-04-26T08:59:13.416Z,1002.25
2019-04-26T09:00:23.389Z,1002.28
2019-04-26T09:01:32.850Z,1002.27
2019-04-26T09:02:46.046Z,1002.29
2019-04-26T09:03:56.015Z,1002.24
2019-04-26T09:05:05.994Z,1002.28
2019-04-26T09:06:15.964Z,1002.28
2019-04-26T09:07:25.919Z,1002.25
2019-04-26T09:08:39.152Z,1002.26
2019-04-26T09:09:57.285Z,1002.28
2019-04-26T09:11:24.045Z,1002.29
2019-04-26T09:12:41.039Z,1002.21
2019-04-26T09:13:50.991Z,1002.24
2019-04-26T09:15:00.950Z,1002.24
2019-04-26T09:16:10.986Z,1002.31
2019-04-26T09:17:21.543Z,1002.27
2019-04-26T09:18:43.309Z,1002.27
2019-04-26T09:20:07.756Z,1002.25
2019-04-26T09:21:30.825Z,1002.25
2019-04-26T09:22:40.780Z,1002.23
2019-04-26T09:23:51.917Z,1002.21
2019-04-26T09:25:02.065Z,1002.25
2019-04-26T09:26:12.433Z,1002.25
2019-04-26T09:27:22.858Z,1002.23
2019-04-26T09:28:32.568Z,1002.21
2019-04-26T09:29:42.318Z,1002.2
2019-04-26T09:30:52.286Z,1002.15
2019-04-26T09:32:02.299Z,1002.17
2019-04-26T09:33:11.864Z,1002.13
2019-04-26T09:34:22.330Z,1002.09
2019-04-26T09:35:32.353Z,1002.12
2019-04-26T09:36:42.310Z,1002.14
2019-04-26T09:37:52.020Z,1002.14
2019-04-26T09:39:03.830Z,1002.11
2019-04-26T09:40:21.494Z,1002.08
2019-04-26T09:41:32.169Z,1002.07
2019-04-26T09:42:42.195Z,1002.11
2019-04-26T09:43:54.859Z,1002.09
2019-04-26T09:45:06.723Z,1002.1
2019-04-26T09:46:16.924Z,1002.09
2019-04-26T09:47:26.922Z,1002.1
2019-04-26T09:48:36.937Z,1002.12
2019-04-26T09:49:46.665Z,1002.1
2019-04-26T09:50:56.624Z,1002.09
2019-04-26T09:52:06.364Z,1002.15
2019-04-26T09:53:16.094Z,1002.13
2019-04-26T09:54:26.056Z,1002.16
2019-04-26T09:55:36.093Z,1002.19
2019-04-26T09:56:46.446Z,1002.21
2019-04-26T09:57:56.956Z,1002.2
2019-04-26T09:59:09.147Z,1002.18
2019-04-26T10:00:18.867Z,1002.21
2019-04-26T10:01:28.854Z,1002.22
2019-04-26T10:02:38.827Z,1002.23
2019-04-26T10:03:48.547Z,1002.22
2019-04-26T10:04:58.260Z,1002.28
2019-04-26T10:06:13.506Z,1002.26
2019-04-26T10:07:26.655Z,1002.23
2019-04-26T10:08:43.277Z,1002.24
2019-04-26T10:10:00.879Z,1002.23
2019-04-26T10:11:23.163Z,1002.17
2019-04-26T10:12:33.134Z,1002.19
2019-04-26T10:13:42.604Z,1002.14
2019-04-26T10:14:52.323Z,1002.2
2019-04-26T10:16:02.833Z,1002.17
2019-04-26T10:17:15.535Z,1002.14
2019-04-26T10:18:25.939Z,1002.14
2019-04-26T10:19:35.763Z,1002.19
2019-04-26T10:20:45.476Z,1002.22
2019-04-26T10:21:55.473Z,1002.28
2019-04-26T10:23:05.427Z,1002.26
2019-04-26T10:24:15.159Z,1002.25
2019-04-26T10:25:24.875Z,1002.2
2019-04-26T10:26:34.846Z,1002.22
2019-04-26T10:27:45.056Z,1002.17
2019-04-26T10:28:55.038Z,1002.14
2019-04-26T10:30:08.804Z,1002.14
2019-04-26T10:31:19.107Z,1002.14
2019-04-26T10:32:29.090Z,1002.13
2019-04-26T10:33:39.053Z,1002.12
2019-04-26T10:34:48.965Z,1002.13
2019-04-26T10:35:59.024Z,1002.09
2019-04-26T10:37:09.002Z,1002.13
2019-04-26T10:38:19.230Z,1002.08
2019-04-26T10:39:32.394Z,1002.12
2019-04-26T10:40:44.607Z,1002
2019-04-26T10:41:54.592Z,1002.1
2019-04-26T10:43:04.322Z,1002.06
2019-04-26T10:44:14.277Z,1002.13
2019-04-26T10:45:24.009Z,1002.07
2019-04-26T10:46:33.461Z,1002.16
2019-04-26T10:47:55.892Z,1002.17
2019-04-26T10:49:09.026Z,1002.18
2019-04-26T10:50:28.708Z,1002.16
2019-04-26T10:51:41.857Z,1002.19
2019-04-26T10:52:54.151Z,1002.21
2019-04-26T10:54:05.825Z,1002.17
2019-04-26T10:55:15.975Z,1002.11
2019-04-26T10:56:25.724Z,1002.12
2019-04-26T10:57:35.449Z,1002.1
2019-04-26T10:58:45.155Z,1002.13
2019-04-26T10:59:55.140Z,1002.12
2019-04-26T11:01:04.857Z,1002.14
2019-04-26T11:02:14.833Z,1002.14
2019-04-26T11:03:24.807Z,1002.15
2019-04-26T11:04:37.267Z,1002.26
2019-04-26T11:05:53.602Z,1002.14
2019-04-26T11:07:03.751Z,1002.13
2019-04-26T11:08:13.775Z,1002.1
2019-04-26T11:09:23.810Z,1002.14
2019-04-26T11:10:33.778Z,1002.05
2019-04-26T11:11:55.423Z,1002.11
2019-04-26T11:13:05.147Z,1002.04
2019-04-26T11:14:18.157Z,1001.99
2019-04-26T11:15:32.570Z,1002.03
2019-04-26T11:16:42.565Z,1002.02
2019-04-26T11:17:52.567Z,1002.08
2019-04-26T11:19:02.607Z,1001.98
2019-04-26T11:20:12.332Z,1002.05
2019-04-26T11:21:22.414Z,1001.99
2019-04-26T11:22:33.312Z,1002.03
2019-04-26T11:23:46.759Z,1002.01
2019-04-26T11:24:57.441Z,1002.04
2019-04-26T11:26:07.170Z,1001.98
2019-04-26T11:27:19.477Z,1001.98
2019-04-26T11:28:29.001Z,1002.08
2019-04-26T11:29:38.725Z,1002
2019-04-26T11:31:12.669Z,1001.96
2019-04-26T11:32:28.319Z,1001.96
2019-04-26T11:33:44.790Z,1001.97
2019-04-26T11:35:09.607Z,1001.94
2019-04-26T11:36:19.764Z,1001.87
2019-04-26T11:37:29.856Z,1001.89
2019-04-26T11:38:40.083Z,1001.88
2019-04-26T11:39:49.923Z,1001.89
2019-04-26T11:41:06.076Z,1002.01
2019-04-26T11:42:16.432Z,1001.91
2019-04-26T11:43:26.147Z,1001.9
2019-04-26T11:44:36.123Z,1001.95
2019-04-26T11:45:49.249Z,1001.92
2019-04-26T11:47:11.351Z,1001.9
2019-04-26T11:48:21.313Z,1001.94
2019-04-26T11:49:37.272Z,1001.91
2019-04-26T11:50:51.982Z,1001.94
2019-04-26T11:52:04.070Z,1002.01
2019-04-26T11:53:14.078Z,1001.94
2019-04-26T11:54:24.035Z,1001.93
2019-04-26T11:55:33.758Z,1001.87
2019-04-26T11:56:42.993Z,1001.87
2019-04-26T11:57:55.672Z,1001.85
2019-04-26T11:59:05.406Z,1001.84
2019-04-26T12:00:15.144Z,1001.85
2019-04-26T12:01:27.841Z,1001.83
2019-04-26T12:02:46.172Z,1001.9
2019-04-26T12:03:59.391Z,1001.86
2019-04-26T12:05:12.541Z,1001.98
2019-04-26T12:06:22.269Z,1001.96
2019-04-26T12:07:32.239Z,1001.93
2019-04-26T12:08:42.204Z,1001.99
2019-04-26T12:09:51.940Z,1001.98
2019-04-26T12:11:01.921Z,1001.97
2019-04-26T12:12:35.792Z,1002
2019-04-26T12:14:06.076Z,1001.97
2019-04-26T12:15:30.713Z,1001.92
2019-04-26T12:16:49.541Z,1001.96
2019-04-26T12:18:09.612Z,1001.93
2019-04-26T12:19:19.862Z,1001.98
2019-04-26T12:20:29.661Z,1001.91
2019-04-26T12:21:39.629Z,1001.98
2019-04-26T12:22:49.365Z,1002.02
2019-04-26T12:23:59.345Z,1002.04
2019-04-26T12:25:09.080Z,1002.04
2019-04-26T12:26:21.481Z,1001.97
2019-04-26T12:27:43.455Z,1001.98
2019-04-26T12:30:58.350Z,1002.14
2019-04-26T12:32:08.819Z,1002.12
2019-04-26T12:33:19.954Z,1002.16
2019-04-26T12:34:29.666Z,1002.18
2019-04-26T12:35:39.379Z,1002.28
2019-04-26T12:36:57.344Z,1002.18
2019-04-26T12:38:07.307Z,1002.3
2019-04-26T12:39:17.268Z,1002.24
2019-04-26T12:40:27.217Z,1002.19
2019-04-26T12:41:40.116Z,1002.29
2019-04-26T12:42:49.908Z,1002.34
2019-04-26T12:44:03.227Z,1002.25
2019-04-26T12:45:16.635Z,1002.35
2019-04-26T12:46:28.471Z,1002.23
2019-04-26T12:47:40.105Z,1002.19
2019-04-26T12:48:51.655Z,1002.2
2019-04-26T12:50:01.626Z,1002.21
2019-04-26T12:51:11.943Z,1002.17
2019-04-26T12:52:23.184Z,1002.13
2019-04-26T12:53:33.141Z,1002.21
2019-04-26T12:54:45.682Z,1002.08
2019-04-26T12:55:58.527Z,1002.11
2019-04-26T12:57:08.538Z,1002.1
2019-04-26T12:58:21.459Z,1002.17
2019-04-26T12:59:43.504Z,1002.07
2019-04-26T13:00:54.626Z,1002.15
2019-04-26T13:02:08.560Z,1002.07
2019-04-26T13:03:24.843Z,1002.12
2019-04-26T13:04:40.469Z,1002.15
2019-04-26T13:05:57.595Z,1002.06
2019-04-26T13:07:08.689Z,1002.04
2019-04-26T13:08:30.089Z,1002.1
2019-04-26T13:09:40.038Z,1002.05
2019-04-26T13:10:49.512Z,1001.99
2019-04-26T13:11:59.058Z,1002.09
2019-04-26T13:13:09.012Z,1002.05
2019-04-26T13:14:18.966Z,1002.07
2019-04-26T13:15:28.427Z,1001.98
2019-04-26T13:16:38.382Z,1002.04
2019-04-26T13:17:48.349Z,1002.13
2019-04-26T13:18:57.798Z,1002.02
2019-04-26T13:20:07.254Z,1001.99
2019-04-26T13:21:17.214Z,1001.99
2019-04-26T13:22:27.202Z,1001.95
2019-04-26T13:23:55.028Z,1001.99
2019-04-26T13:25:17.375Z,1001.89
2019-04-26T13:26:49.994Z,1001.95
2019-04-26T13:28:00.092Z,1001.94
2019-04-26T13:29:10.062Z,1001.88
2019-04-26T13:30:32.243Z,1001.96
2019-04-26T13:31:46.722Z,1002.01
2019-04-26T13:32:56.214Z,1001.88
2019-04-26T13:34:06.183Z,1001.94
2019-04-26T13:35:16.135Z,1002.01
2019-04-26T13:36:28.993Z,1002.02
2019-04-26T13:37:39.250Z,1001.99
2019-04-26T13:38:49.798Z,1002.02
2019-04-26T13:39:59.546Z,1002.02
2019-04-26T13:41:09.259Z,1002
2019-04-26T13:42:18.756Z,1002.06
2019-04-26T13:43:28.868Z,1002.08
2019-04-26T13:44:39.316Z,1002.11
2019-04-26T13:45:49.518Z,1002.13
2019-04-26T13:46:59.479Z,1002.12
2019-04-26T13:48:13.253Z,1002.1
2019-04-26T13:49:24.604Z,1002.03
2019-04-26T13:50:34.327Z,1002.12
2019-04-26T13:51:43.538Z,1002.04
2019-04-26T13:52:53.558Z,1002.03
2019-04-26T13:54:03.292Z,1002.04
2019-04-26T13:55:13.010Z,1002.06
2019-04-26T13:56:25.976Z,1002.05
2019-04-26T13:57:40.125Z,1002.27
2019-04-26T13:58:54.205Z,1002.03
2019-04-26T14:00:06.676Z,1002.1
2019-04-26T14:01:19.798Z,1002.02
2019-04-26T14:02:29.292Z,1002.22
2019-04-26T14:03:39.264Z,1002.14
2019-04-26T14:04:49.229Z,1002.16
2019-04-26T14:05:58.956Z,1002.08
2019-04-26T14:07:08.933Z,1002.07
2019-04-26T14:08:20.662Z,1002.05
2019-04-26T14:09:30.628Z,1002.07
2019-04-26T14:10:40.584Z,1002.07
2019-04-26T14:11:58.019Z,1002.21
2019-04-26T14:13:24.884Z,1002.1
2019-04-26T14:14:35.310Z,1002.05
2019-04-26T14:15:48.644Z,1002.05
2019-04-26T14:16:59.762Z,1002.12
2019-04-26T14:18:09.474Z,1002.15
2019-04-26T14:19:19.188Z,1002.13
2019-04-26T14:20:29.155Z,1002.24
2019-04-26T14:21:38.891Z,1002.23
2019-04-26T14:22:48.604Z,1002.27
2019-04-26T14:23:58.314Z,1002.28
2019-04-26T14:25:07.774Z,1002.32
2019-04-26T14:26:18.926Z,1002.17
2019-04-26T14:27:28.898Z,1002.11
2019-04-26T14:28:38.610Z,1002.09
2019-04-26T14:29:49.553Z,1002.15
2019-04-26T14:31:03.117Z,1001.98
2019-04-26T14:32:17.203Z,1002.08
2019-04-26T14:33:32.050Z,1002.02